createdAt,value
2023-04-18T00:00:15.081Z,56.60
2023-04-18T00:01:56.472Z,58.92
2023-04-18T00:03:38.075Z,60.66
2023-04-18T00:05:19.633Z,60.59
2023-04-18T00:07:01.094Z,59.83
2023-04-18T00:08:42.400Z,60.90
2023-04-18T00:10:23.674Z,60.13
2023-04-18T00:12:05.017Z,58.69
2023-04-18T00:13:46.310Z,58.47
2023-04-18T00:15:27.620Z,57.49
2023-04-18T00:17:09.046Z,58.00
2023-04-18T00:18:50.392Z,58.46
2023-04-18T00:20:31.688Z,57.24
2023-04-18T00:22:13.023Z,55.58
2023-04-18T00:23:54.286Z,54.95
2023-04-18T00:25:35.617Z,55.54
2023-04-18T00:27:16.890Z,56.92
2023-04-18T00:28:58.177Z,56.86
2023-04-18T00:30:39.506Z,56.34
2023-04-18T00:32:20.866Z,56.46
2023-04-18T00:34:02.170Z,57.64
2023-04-18T00:35:43.471Z,57.41
2023-04-18T00:37:24.789Z,57.90
2023-04-18T00:39:06.065Z,56.55
2023-04-18T00:40:47.383Z,54.63
2023-04-18T00:42:28.676Z,54.80
2023-04-18T00:44:09.985Z,56.27
2023-04-18T00:45:51.321Z,55.28
2023-04-18T00:47:32.685Z,55.75
2023-04-18T00:49:14.060Z,58.67
2023-04-18T00:50:55.348Z,58.90
2023-04-18T00:52:36.625Z,56.44
2023-04-18T00:54:17.916Z,55.09
2023-04-18T00:55:59.202Z,54.35
2023-04-18T00:57:40.544Z,53.26
2023-04-18T00:59:21.843Z,54.04
2023-04-18T01:01:03.221Z,53.98
2023-04-18T01:02:44.724Z,56.23
2023-04-18T01:04:26.351Z,56.26
2023-04-18T01:06:07.688Z,54.92
2023-04-18T01:07:49.004Z,53.55
2023-04-18T01:09:30.400Z,55.34
2023-04-18T01:11:11.700Z,56.58
2023-04-18T01:12:52.998Z,56.24
2023-04-18T01:14:34.321Z,60.28
2023-04-18T01:16:15.664Z,60.31
2023-04-18T01:17:56.980Z,59.65
2023-04-18T01:19:38.336Z,59.15
2023-04-18T01:21:19.626Z,60.42
2023-04-18T01:23:00.929Z,58.81
2023-04-18T01:24:42.227Z,57.23
2023-04-18T01:26:23.500Z,60.10
2023-04-18T01:28:04.862Z,61.76
2023-04-18T01:29:46.194Z,60.55
2023-04-18T01:31:27.543Z,58.63
2023-04-18T01:33:08.863Z,56.22
2023-04-18T01:34:50.177Z,58.65
2023-04-18T01:36:31.520Z,59.44
2023-04-18T01:38:12.817Z,61.14
2023-04-18T01:39:54.211Z,64.19
2023-04-18T01:41:35.546Z,64.57
2023-04-18T01:43:16.819Z,63.64
2023-04-18T01:44:58.130Z,62.24
2023-04-18T01:46:39.437Z,60.82
2023-04-18T01:48:20.758Z,59.33
2023-04-18T01:50:02.057Z,61.46
2023-04-18T01:51:43.361Z,63.22
2023-04-18T01:53:24.665Z,63.59
2023-04-18T01:55:05.946Z,62.15
2023-04-18T01:56:47.248Z,61.26
2023-04-18T01:58:28.523Z,61.63
2023-04-18T02:00:09.838Z,61.87
2023-04-18T02:01:51.187Z,61.23
2023-04-18T02:03:32.709Z,58.03
2023-04-18T02:05:14.140Z,62.97
2023-04-18T02:06:55.453Z,61.92
2023-04-18T02:08:36.753Z,60.01
2023-04-18T02:10:18.088Z,59.93
2023-04-18T02:11:59.437Z,60.86
2023-04-18T02:13:40.805Z,62.17
2023-04-18T02:15:22.068Z,59.38
2023-04-18T02:17:03.363Z,58.40
2023-04-18T02:18:44.643Z,57.72
2023-04-18T02:20:25.915Z,59.35
2023-04-18T02:22:07.221Z,59.53
2023-04-18T02:23:48.530Z,59.61
2023-04-18T02:25:29.840Z,58.98
2023-04-18T02:27:11.160Z,58.03
2023-04-18T02:28:52.441Z,58.28
2023-04-18T02:30:33.724Z,57.35
2023-04-18T02:32:15.056Z,56.83
2023-04-18T02:33:56.349Z,58.43
2023-04-18T02:35:37.680Z,59.39
2023-04-18T02:37:18.982Z,58.65
2023-04-18T02:39:00.268Z,57.83
2023-04-18T02:40:41.591Z,59.37
2023-04-18T02:42:22.914Z,58.46
2023-04-18T02:44:04.214Z,60.33
2023-04-18T02:45:45.551Z,60.21
2023-04-18T02:47:26.942Z,59.62
2023-04-18T02:49:08.275Z,58.09
2023-04-18T02:50:49.562Z,61.31
2023-04-18T02:52:30.860Z,60.88
2023-04-18T02:54:12.325Z,57.93
2023-04-18T02:55:53.779Z,55.70
2023-04-18T02:57:35.097Z,55.24
2023-04-18T02:59:16.380Z,56.16
2023-04-18T03:00:57.682Z,55.42
2023-04-18T03:02:39.053Z,57.35
2023-04-18T03:04:20.375Z,57.05
2023-04-18T03:06:01.688Z,58.68
2023-04-18T03:07:43.032Z,58.78
2023-04-18T03:09:24.324Z,56.03
2023-04-18T03:11:05.594Z,55.37
2023-04-18T03:12:46.919Z,53.05
2023-04-18T03:14:28.195Z,56.60
2023-04-18T03:16:09.520Z,57.58
2023-04-18T03:17:50.884Z,56.42
2023-04-18T03:19:32.181Z,54.95
2023-04-18T03:21:13.472Z,59.09
2023-04-18T03:22:54.801Z,59.69
2023-04-18T03:24:36.090Z,58.19
2023-04-18T03:26:17.439Z,57.13
2023-04-18T03:27:58.744Z,55.35
2023-04-18T03:29:40.053Z,57.11
2023-04-18T03:31:21.434Z,57.82
2023-04-18T03:33:03.024Z,58.45
2023-04-18T03:34:44.465Z,56.82
2023-04-18T03:36:25.769Z,57.29
2023-04-18T03:38:07.103Z,57.30
2023-04-18T03:39:48.392Z,56.42
2023-04-18T03:41:29.723Z,56.36
2023-04-18T03:43:11.116Z,56.51
2023-04-18T03:44:52.391Z,57.68
2023-04-18T03:46:33.793Z,59.69
2023-04-18T03:48:15.107Z,59.62
2023-04-18T03:49:56.383Z,57.39
2023-04-18T03:51:37.686Z,57.14
2023-04-18T03:53:18.957Z,57.78
2023-04-18T03:55:00.338Z,57.73
2023-04-18T03:56:41.710Z,59.10
2023-04-18T04:00:04.419Z,60.70
2023-04-18T04:01:45.788Z,59.97
2023-04-18T04:03:27.220Z,59.18
2023-04-18T04:05:08.606Z,57.33
2023-04-18T04:06:49.966Z,55.44
2023-04-18T04:08:31.255Z,55.92
2023-04-18T04:10:12.582Z,58.15
2023-04-18T04:11:53.911Z,58.61
2023-04-18T04:13:35.203Z,57.78
2023-04-18T04:15:16.500Z,55.99
2023-04-18T04:16:57.787Z,54.61
2023-04-18T04:18:39.050Z,53.45
2023-04-18T04:20:20.340Z,52.78
2023-04-18T04:22:01.671Z,53.30
2023-04-18T04:23:43.024Z,55.76
2023-04-18T04:25:24.515Z,56.39
2023-04-18T04:27:05.968Z,57.34
2023-04-18T04:28:47.333Z,59.01
2023-04-18T04:30:28.680Z,59.53
2023-04-18T04:32:10.014Z,57.63
2023-04-18T04:33:51.350Z,56.86
2023-04-18T04:35:32.651Z,55.60
2023-04-18T04:37:14.085Z,57.23
2023-04-18T04:38:55.756Z,58.92
2023-04-18T04:40:37.056Z,57.89
2023-04-18T04:42:18.337Z,57.25
2023-04-18T04:43:59.646Z,56.36
2023-04-18T04:45:40.985Z,55.20
2023-04-18T04:47:22.403Z,56.12
2023-04-18T04:49:03.770Z,57.14
2023-04-18T04:50:45.046Z,56.71
2023-04-18T04:52:26.341Z,56.24
2023-04-18T04:54:07.701Z,56.45
2023-04-18T04:55:48.996Z,57.23
2023-04-18T04:57:30.295Z,56.10
2023-04-18T04:59:11.602Z,56.88
2023-04-18T05:00:52.949Z,56.97
2023-04-18T05:02:34.430Z,56.14
2023-04-18T05:04:16.093Z,55.50
2023-04-18T05:05:57.672Z,56.26
2023-04-18T05:07:38.932Z,56.48
2023-04-18T05:09:20.265Z,56.53
2023-04-18T05:11:01.586Z,57.63
2023-04-18T05:12:42.911Z,57.74
2023-04-18T05:14:25.410Z,56.53
2023-04-18T05:16:06.704Z,54.08
2023-04-18T05:17:48.017Z,53.83
2023-04-18T05:19:29.344Z,56.00
2023-04-18T05:21:10.633Z,56.27
2023-04-18T05:22:51.918Z,55.39
2023-04-18T05:24:33.208Z,54.11
2023-04-18T05:26:14.518Z,53.80
2023-04-18T05:27:55.814Z,53.79
2023-04-18T05:29:37.106Z,53.28
2023-04-18T05:31:18.428Z,53.65
2023-04-18T05:32:59.820Z,53.43
2023-04-18T05:34:41.135Z,53.06
2023-04-18T05:36:22.465Z,52.71
2023-04-18T05:38:03.750Z,54.10
2023-04-18T05:39:45.048Z,54.87
2023-04-18T05:41:26.376Z,55.84
2023-04-18T05:43:07.687Z,54.66
2023-04-18T05:44:48.949Z,56.64
2023-04-18T05:46:30.268Z,54.86
2023-04-18T05:48:11.599Z,54.08
2023-04-18T05:49:52.909Z,52.98
2023-04-18T05:51:34.228Z,51.37
2023-04-18T05:53:15.549Z,51.51
2023-04-18T05:54:56.814Z,51.26
2023-04-18T05:56:38.120Z,52.75
2023-04-18T05:58:19.556Z,54.24
2023-04-18T06:00:00.876Z,53.15
2023-04-18T06:01:42.175Z,51.31
2023-04-18T06:03:23.755Z,53.30
2023-04-18T06:05:05.603Z,53.84
2023-04-18T06:06:47.228Z,54.00
2023-04-18T06:08:28.489Z,56.40
2023-04-18T06:10:09.769Z,53.53
2023-04-18T06:11:51.067Z,53.44
2023-04-18T06:13:32.361Z,54.71
2023-04-18T06:15:13.660Z,53.97
2023-04-18T06:16:55.039Z,53.23
2023-04-18T06:18:36.344Z,52.34
2023-04-18T06:20:17.640Z,53.45
2023-04-18T06:21:58.938Z,52.21
2023-04-18T06:23:40.228Z,54.48
2023-04-18T06:25:21.535Z,55.19
2023-04-18T06:27:02.895Z,53.22
2023-04-18T06:28:44.214Z,51.16
2023-04-18T06:30:25.570Z,52.57
2023-04-18T06:32:06.932Z,53.63
2023-04-18T06:33:48.223Z,54.71
2023-04-18T06:35:29.543Z,55.04
2023-04-18T06:37:10.837Z,53.85
2023-04-18T06:38:52.120Z,53.35
2023-04-18T06:40:33.464Z,53.41
2023-04-18T06:42:14.776Z,52.86
2023-04-18T06:44:14.574Z,52.38
2023-04-18T06:45:56.090Z,52.74
2023-04-18T06:47:37.675Z,51.25
2023-04-18T06:49:19.733Z,52.05
2023-04-18T06:51:02.107Z,52.96
2023-04-18T06:52:43.443Z,53.20
2023-04-18T06:54:24.764Z,51.59
2023-04-18T06:56:06.063Z,51.91
2023-04-18T06:57:47.399Z,51.69
2023-04-18T06:59:28.678Z,53.01
2023-04-18T07:01:10.019Z,53.81
2023-04-18T07:02:51.446Z,53.32
2023-04-18T07:04:32.866Z,52.62
2023-04-18T07:06:14.202Z,53.20
2023-04-18T07:07:55.561Z,52.67
2023-04-18T07:09:36.871Z,52.99
2023-04-18T07:11:18.194Z,54.27
2023-04-18T07:12:59.468Z,54.07
2023-04-18T07:14:40.742Z,54.98
2023-04-18T07:16:22.110Z,54.28
2023-04-18T07:18:03.447Z,53.36
2023-04-18T07:19:44.884Z,53.33
2023-04-18T07:21:26.168Z,51.09
2023-04-18T07:23:07.455Z,51.21
2023-04-18T07:24:48.801Z,51.59
2023-04-18T07:26:30.094Z,51.72
2023-04-18T07:28:11.405Z,50.84
2023-04-18T07:29:52.719Z,49.45
2023-04-18T07:31:34.115Z,49.40
2023-04-18T07:33:15.551Z,49.21
2023-04-18T07:34:56.849Z,49.12
2023-04-18T07:36:38.157Z,49.37
2023-04-18T07:38:19.469Z,47.51
2023-04-18T07:40:00.858Z,47.02
2023-04-18T07:41:42.207Z,45.91
2023-04-18T07:43:23.631Z,44.98
2023-04-18T07:45:04.923Z,44.15
2023-04-18T07:46:46.404Z,43.52
2023-04-18T07:48:27.930Z,43.62
2023-04-18T07:50:09.329Z,42.74
2023-04-18T07:51:50.682Z,39.93
2023-04-18T07:53:32.052Z,41.23
2023-04-18T07:55:13.389Z,39.28
2023-04-18T07:56:54.683Z,40.56
2023-04-18T07:58:35.985Z,39.29
2023-04-18T08:00:17.291Z,37.49
2023-04-18T08:01:58.670Z,39.73
2023-04-18T08:03:40.167Z,37.16
2023-04-18T08:05:21.592Z,37.03
2023-04-18T08:07:02.947Z,33.97
2023-04-18T08:08:44.241Z,34.01
2023-04-18T08:10:25.537Z,33.97
2023-04-18T08:12:06.866Z,30.75
2023-04-18T08:13:48.239Z,33.40
2023-04-18T08:15:29.562Z,31.88
2023-04-18T08:17:10.879Z,30.55
2023-04-18T08:18:52.171Z,30.74
2023-04-18T08:20:33.492Z,31.31
2023-04-18T08:22:14.831Z,30.85
2023-04-18T08:23:56.113Z,29.34
2023-04-18T08:25:37.401Z,30.78
2023-04-18T08:27:18.735Z,31.75
2023-04-18T08:29:00.060Z,30.06
2023-04-18T08:30:41.337Z,28.18
2023-04-18T08:32:22.757Z,28.92
2023-04-18T08:34:05.077Z,29.91
2023-04-18T08:35:46.633Z,29.99
2023-04-18T08:37:28.027Z,28.89
2023-04-18T08:39:09.398Z,28.03
2023-04-18T08:40:50.669Z,27.70
2023-04-18T08:42:31.976Z,28.35
2023-04-18T08:44:13.491Z,27.62
2023-04-18T08:45:55.001Z,29.83
2023-04-18T08:47:36.334Z,29.71
2023-04-18T08:49:17.681Z,29.45
2023-04-18T08:50:59.013Z,29.89
2023-04-18T08:52:40.351Z,29.99
2023-04-18T08:54:21.652Z,28.11
2023-04-18T08:56:02.985Z,27.79
2023-04-18T08:57:44.312Z,26.50
2023-04-18T08:59:25.572Z,28.21
2023-04-18T09:01:06.990Z,28.39
2023-04-18T09:02:48.404Z,28.06
2023-04-18T09:04:29.823Z,29.06
2023-04-18T09:06:11.206Z,27.96
2023-04-18T09:07:52.562Z,28.10
2023-04-18T09:09:33.857Z,28.90
2023-04-18T09:11:15.165Z,27.71
2023-04-18T09:12:56.469Z,26.92
2023-04-18T09:14:37.777Z,26.82
2023-04-18T09:16:19.122Z,26.45
2023-04-18T09:18:00.523Z,26.09
2023-04-18T09:19:41.813Z,26.48
2023-04-18T09:21:23.192Z,25.29
2023-04-18T09:23:04.478Z,26.88
2023-04-18T09:24:45.891Z,25.42
2023-04-18T09:26:27.216Z,25.24
2023-04-18T09:28:08.547Z,26.02
2023-04-18T09:29:49.834Z,25.95
2023-04-18T09:31:31.219Z,27.44
2023-04-18T09:33:12.585Z,28.42
2023-04-18T09:34:53.903Z,28.64
2023-04-18T09:36:35.267Z,29.83
2023-04-18T09:38:16.630Z,30.81
2023-04-18T09:39:58.008Z,31.78
2023-04-18T09:41:39.348Z,32.02
2023-04-18T09:43:20.648Z,32.11
2023-04-18T09:45:02.002Z,30.70
2023-04-18T09:46:46.535Z,30.57
2023-04-18T09:48:28.634Z,29.74
2023-04-18T09:50:09.913Z,30.44
2023-04-18T09:51:51.209Z,34.06
2023-04-18T09:53:32.600Z,31.82
2023-04-18T09:55:13.952Z,33.06
2023-04-18T09:56:55.357Z,31.23
2023-04-18T09:58:36.703Z,31.13
2023-04-18T10:00:18.007Z,31.48
2023-04-18T10:01:59.438Z,31.02
2023-04-18T10:03:41.022Z,29.81
2023-04-18T10:05:22.366Z,30.63
2023-04-18T10:07:03.721Z,29.38
2023-04-18T10:08:45.023Z,28.95
2023-04-18T10:10:26.350Z,29.91
2023-04-18T10:12:07.697Z,30.16
2023-04-18T10:13:49.039Z,30.35
2023-04-18T10:15:30.823Z,30.65
2023-04-18T10:17:12.397Z,30.76
2023-04-18T10:18:53.678Z,30.95
2023-04-18T10:20:35.337Z,31.55
2023-04-18T10:22:16.978Z,30.55
2023-04-18T10:23:58.293Z,30.89
2023-04-18T10:25:39.590Z,30.02
2023-04-18T10:27:20.947Z,29.48
2023-04-18T10:29:02.235Z,30.03
2023-04-18T10:30:43.556Z,30.54
2023-04-18T10:32:24.947Z,29.42
2023-04-18T10:34:06.404Z,30.20
2023-04-18T10:35:47.758Z,29.62
2023-04-18T10:37:29.116Z,29.26
2023-04-18T10:39:10.400Z,28.35
2023-04-18T10:40:51.739Z,29.39
2023-04-18T10:42:33.070Z,28.34
2023-04-18T10:44:14.624Z,27.87
2023-04-18T10:45:56.207Z,27.78
2023-04-18T10:47:37.701Z,26.87
2023-04-18T10:49:19.144Z,26.84
2023-04-18T10:51:00.432Z,27.33
2023-04-18T10:52:41.761Z,28.55
2023-04-18T10:54:23.049Z,28.60
2023-04-18T10:56:04.457Z,27.65
2023-04-18T10:57:45.779Z,27.94
2023-04-18T10:59:27.081Z,28.81
2023-04-18T11:01:08.399Z,30.05
2023-04-18T11:02:49.829Z,31.14
2023-04-18T11:04:31.455Z,31.48
2023-04-18T11:06:12.872Z,31.77
2023-04-18T11:07:54.465Z,32.10
2023-04-18T11:09:35.931Z,32.55
2023-04-18T11:11:17.349Z,31.93
2023-04-18T11:12:58.660Z,31.33
2023-04-18T11:14:39.937Z,30.98
2023-04-18T11:16:21.299Z,31.36
2023-04-18T11:18:02.677Z,31.64
2023-04-18T11:19:43.993Z,31.74
2023-04-18T11:21:25.318Z,31.58
2023-04-18T11:23:06.607Z,32.56
2023-04-18T11:24:47.896Z,31.56
2023-04-18T11:26:29.240Z,31.74
2023-04-18T11:28:10.546Z,31.88
2023-04-18T11:29:51.836Z,31.45
2023-04-18T11:31:33.298Z,31.65
2023-04-18T11:33:14.689Z,30.43
2023-04-18T11:34:55.993Z,31.10
2023-04-18T11:36:37.298Z,31.63
2023-04-18T11:38:18.642Z,31.29
2023-04-18T11:39:59.943Z,31.67
2023-04-18T11:41:41.265Z,31.20
2023-04-18T11:43:22.724Z,31.24
2023-04-18T11:45:04.070Z,30.88
2023-04-18T11:46:45.354Z,30.38
2023-04-18T11:48:26.644Z,30.71
2023-04-18T11:50:08.057Z,31.51
2023-04-18T11:51:49.385Z,30.90
2023-04-18T11:53:30.691Z,29.88
2023-04-18T11:55:11.991Z,30.34
2023-04-18T11:56:53.265Z,30.16
2023-04-18T11:58:34.572Z,31.63
2023-04-18T12:00:15.930Z,30.89
2023-04-18T12:01:58.858Z,30.01
2023-04-18T12:03:40.495Z,30.51
2023-04-18T12:05:22.055Z,29.67
2023-04-18T12:07:03.612Z,30.00
2023-04-18T12:08:44.900Z,29.71
2023-04-18T12:10:26.193Z,29.17
2023-04-18T12:12:07.489Z,29.54
2023-04-18T12:13:48.792Z,30.27
2023-04-18T12:15:30.074Z,28.48
2023-04-18T12:17:11.355Z,26.74
2023-04-18T12:18:52.652Z,28.45
2023-04-18T12:20:33.943Z,30.52
2023-04-18T12:22:15.241Z,29.86
2023-04-18T12:23:56.527Z,29.26
2023-04-18T12:25:37.793Z,30.93
2023-04-18T12:27:19.099Z,30.71
2023-04-18T12:29:00.372Z,30.24
2023-04-18T12:30:41.653Z,30.18
2023-04-18T12:32:22.921Z,29.90
2023-04-18T12:34:04.225Z,28.73
2023-04-18T12:35:46.402Z,29.77
2023-04-18T12:37:28.595Z,29.35
2023-04-18T12:39:09.887Z,29.35
2023-04-18T12:40:51.186Z,31.33
2023-04-18T12:42:32.479Z,30.63
2023-04-18T12:44:13.968Z,30.00
2023-04-18T12:45:55.413Z,30.08
2023-04-18T12:47:36.723Z,29.75
2023-04-18T12:49:18.047Z,30.36
2023-04-18T12:50:59.312Z,30.66
2023-04-18T12:52:40.714Z,30.95
2023-04-18T12:54:22.055Z,29.74
2023-04-18T12:56:03.323Z,30.28
2023-04-18T12:57:44.622Z,30.47
2023-04-18T12:59:25.909Z,30.66
2023-04-18T13:01:07.233Z,30.91
2023-04-18T13:02:48.719Z,30.92
2023-04-18T13:04:30.256Z,30.63
2023-04-18T13:06:11.742Z,30.15
2023-04-18T13:07:58.635Z,30.23
2023-04-18T13:09:43.200Z,31.20
2023-04-18T13:11:24.452Z,31.29
2023-04-18T13:13:05.754Z,30.05
2023-04-18T13:14:47.127Z,31.07
2023-04-18T13:16:28.428Z,31.35
2023-04-18T13:18:09.709Z,31.78
2023-04-18T13:19:51.030Z,32.02
2023-04-18T13:21:32.299Z,31.32
2023-04-18T13:23:13.549Z,31.05
2023-04-18T13:24:54.906Z,31.65
2023-04-18T13:26:36.228Z,32.60
2023-04-18T13:28:17.521Z,32.53
2023-04-18T13:29:58.813Z,32.65
2023-04-18T13:31:40.171Z,33.73
2023-04-18T13:33:21.483Z,33.91
2023-04-18T13:35:04.316Z,35.06
2023-04-18T13:36:45.619Z,33.80
2023-04-18T13:38:27.204Z,32.96
2023-04-18T13:40:08.718Z,33.49
2023-04-18T13:41:50.071Z,32.99
2023-04-18T13:43:31.472Z,34.10
2023-04-18T13:45:12.879Z,34.13
2023-04-18T13:46:54.168Z,35.15
2023-04-18T13:48:35.468Z,33.92
2023-04-18T13:50:16.822Z,32.57
2023-04-18T13:51:58.099Z,31.73
2023-04-18T13:53:39.433Z,31.61
2023-04-18T13:55:20.751Z,31.59
2023-04-18T13:57:02.041Z,32.09
2023-04-18T13:58:43.344Z,30.60
2023-04-18T14:00:24.682Z,30.55
2023-04-18T14:02:06.016Z,30.93
2023-04-18T14:03:47.604Z,30.96
2023-04-18T14:05:29.101Z,30.99
2023-04-18T14:07:10.417Z,31.67
2023-04-18T14:08:51.689Z,31.77
2023-04-18T14:10:32.994Z,31.62
2023-04-18T14:12:14.289Z,30.74
2023-04-18T14:13:55.560Z,31.31
2023-04-18T14:15:36.863Z,31.94
2023-04-18T14:17:18.218Z,32.13
2023-04-18T14:18:59.497Z,32.68
2023-04-18T14:20:40.781Z,32.27
2023-04-18T14:22:22.090Z,31.61
2023-04-18T14:24:03.356Z,32.74
2023-04-18T14:25:44.632Z,32.35
2023-04-18T14:27:25.920Z,31.87
2023-04-18T14:29:07.213Z,31.74
2023-04-18T14:30:48.501Z,31.67
2023-04-18T14:32:29.872Z,32.89
2023-04-18T14:34:11.189Z,33.04
2023-04-18T14:35:52.495Z,31.79
2023-04-18T14:37:33.843Z,32.36
2023-04-18T14:39:15.376Z,32.10
2023-04-18T14:40:56.728Z,33.01
2023-04-18T14:42:38.022Z,34.62
2023-04-18T14:44:19.347Z,31.46
2023-04-18T14:46:00.761Z,31.32
2023-04-18T14:47:42.182Z,30.99
2023-04-18T14:49:23.565Z,30.83
2023-04-18T14:51:04.880Z,31.23
2023-04-18T14:52:46.177Z,32.10
2023-04-18T14:54:27.516Z,32.47
2023-04-18T14:56:08.814Z,32.05
2023-04-18T14:57:50.224Z,31.74
2023-04-18T14:59:31.563Z,32.77
2023-04-18T15:01:12.838Z,32.72
2023-04-18T15:02:54.321Z,33.87
2023-04-18T15:04:36.058Z,34.83
2023-04-18T15:06:17.395Z,34.39
2023-04-18T15:07:58.740Z,34.70
2023-04-18T15:09:40.099Z,33.86
2023-04-18T15:11:21.454Z,33.73
2023-04-18T15:13:02.737Z,33.92
2023-04-18T15:14:44.033Z,33.57
2023-04-18T15:16:25.424Z,32.63
2023-04-18T15:18:06.758Z,32.27
2023-04-18T15:19:48.061Z,33.16
2023-04-18T15:21:29.360Z,32.54
2023-04-18T15:23:10.692Z,33.16
2023-04-18T15:24:52.079Z,33.38
2023-04-18T15:26:33.493Z,34.00
2023-04-18T15:28:14.851Z,34.51
2023-04-18T15:29:56.843Z,34.36
2023-04-18T15:31:39.268Z,33.34
2023-04-18T15:33:20.861Z,34.69
2023-04-18T15:35:02.382Z,34.37
2023-04-18T15:36:43.810Z,33.52
2023-04-18T15:38:25.119Z,33.76
2023-04-18T15:40:06.585Z,33.91
2023-04-18T15:41:48.530Z,35.08
2023-04-18T15:43:30.007Z,34.15
2023-04-18T15:45:11.290Z,34.48
2023-04-18T15:46:52.784Z,35.17
2023-04-18T15:48:34.335Z,34.97
2023-04-18T15:50:15.693Z,34.54
2023-04-18T15:51:56.996Z,33.77
2023-04-18T15:53:38.285Z,33.64
2023-04-18T15:55:19.571Z,33.36
2023-04-18T15:57:00.845Z,33.82
2023-04-18T15:58:42.714Z,33.00
2023-04-18T16:00:24.413Z,33.39
2023-04-18T16:02:05.819Z,33.76
2023-04-18T16:03:47.245Z,34.03
2023-04-18T16:05:28.607Z,34.29
2023-04-18T16:07:09.882Z,34.36
2023-04-18T16:08:51.159Z,35.20
2023-04-18T16:10:32.467Z,34.76
2023-04-18T16:12:13.761Z,34.48
2023-04-18T16:13:55.031Z,33.77
2023-04-18T16:15:36.369Z,33.01
2023-04-18T16:17:17.699Z,32.45
2023-04-18T16:18:58.991Z,32.94
2023-04-18T16:20:40.363Z,32.66
2023-04-18T16:22:21.679Z,32.86
2023-04-18T16:24:02.982Z,32.82
2023-04-18T16:25:44.306Z,32.74
2023-04-18T16:27:25.642Z,32.05
2023-04-18T16:29:07.022Z,33.15
2023-04-18T16:30:48.388Z,32.59
2023-04-18T16:32:29.796Z,32.86
2023-04-18T16:34:11.109Z,33.45
2023-04-18T16:35:52.658Z,33.18
2023-04-18T16:37:34.152Z,33.01
2023-04-18T16:39:15.457Z,32.85
2023-04-18T16:40:56.768Z,33.32
2023-04-18T16:42:38.074Z,33.19
2023-04-18T16:44:19.407Z,32.89
2023-04-18T16:46:00.763Z,33.21
2023-04-18T16:47:42.128Z,33.39
2023-04-18T16:49:23.519Z,32.71
2023-04-18T16:51:04.801Z,32.75
2023-04-18T16:52:46.073Z,32.98
2023-04-18T16:54:27.351Z,33.72
2023-04-18T16:56:08.633Z,32.94
2023-04-18T16:57:49.926Z,33.33
2023-04-18T16:59:31.421Z,33.80
2023-04-18T17:01:12.710Z,34.19
2023-04-18T17:02:54.045Z,35.31
2023-04-18T17:04:35.496Z,36.17
2023-04-18T17:06:16.835Z,35.68
2023-04-18T17:07:58.105Z,34.78
2023-04-18T17:09:39.413Z,34.31
2023-04-18T17:11:20.767Z,34.32
2023-04-18T17:13:02.085Z,34.39
2023-04-18T17:14:43.379Z,36.15
2023-04-18T17:16:24.703Z,35.08
2023-04-18T17:18:06.062Z,34.43
2023-04-18T17:19:47.416Z,34.42
2023-04-18T17:21:28.729Z,34.60
2023-04-18T17:23:10.004Z,33.88
2023-04-18T17:24:51.295Z,33.83
2023-04-18T17:26:32.594Z,33.77
2023-04-18T17:28:13.924Z,35.49
2023-04-18T17:29:55.232Z,35.82
2023-04-18T17:31:36.573Z,35.59
2023-04-18T17:33:17.905Z,35.11
2023-04-18T17:34:59.191Z,35.79
2023-04-18T17:36:40.479Z,35.23
2023-04-18T17:38:21.741Z,35.48
2023-04-18T17:40:03.052Z,35.40
2023-04-18T17:41:44.347Z,35.41
2023-04-18T17:43:25.620Z,35.55
2023-04-18T17:45:06.925Z,34.68
2023-04-18T17:46:50.002Z,35.39
2023-04-18T17:48:31.803Z,35.74
2023-04-18T17:50:13.133Z,36.44
2023-04-18T17:51:54.427Z,37.62
2023-04-18T17:53:35.739Z,37.57
2023-04-18T17:55:17.023Z,38.59
2023-04-18T17:56:58.308Z,38.73
2023-04-18T17:58:39.610Z,39.68
2023-04-18T18:00:20.892Z,39.86
2023-04-18T18:02:02.210Z,39.74
2023-04-18T18:03:43.848Z,41.81
2023-04-18T18:05:25.299Z,41.52
2023-04-18T18:07:06.890Z,42.59
2023-04-18T18:08:48.172Z,43.19
2023-04-18T18:10:29.492Z,43.63
2023-04-18T18:12:10.823Z,44.04
2023-04-18T18:13:52.116Z,42.70
2023-04-18T18:15:33.397Z,44.56
2023-04-18T18:17:14.691Z,45.30
2023-04-18T18:18:55.996Z,43.71
2023-04-18T18:20:37.276Z,43.42
2023-04-18T18:22:18.590Z,42.75
2023-04-18T18:23:59.913Z,43.39
2023-04-18T18:25:41.217Z,43.57
2023-04-18T18:27:22.490Z,44.63
2023-04-18T18:29:03.794Z,43.50
2023-04-18T18:30:45.072Z,42.59
2023-04-18T18:32:26.398Z,42.75
2023-04-18T18:34:07.765Z,42.77
2023-04-18T18:35:49.093Z,41.86
2023-04-18T18:37:30.404Z,41.95
2023-04-18T18:39:11.795Z,41.06
2023-04-18T18:40:53.211Z,40.95
2023-04-18T18:42:34.509Z,41.65
2023-04-18T18:44:15.804Z,41.46
2023-04-18T18:45:57.138Z,41.08
2023-04-18T18:47:39.990Z,41.52
2023-04-18T18:49:21.698Z,40.91
2023-04-18T18:51:02.989Z,40.84
2023-04-18T18:52:44.941Z,40.83
2023-04-18T18:54:26.463Z,41.63
2023-04-18T18:56:07.750Z,42.01
2023-04-18T18:57:49.028Z,41.15
2023-04-18T18:59:30.415Z,41.89
2023-04-18T19:01:11.719Z,41.31
2023-04-18T19:02:53.117Z,42.97
2023-04-18T19:04:34.573Z,44.06
2023-04-18T19:06:15.889Z,44.65
2023-04-18T19:07:57.219Z,44.99
2023-04-18T19:09:38.557Z,43.61
2023-04-18T19:11:19.815Z,45.02
2023-04-18T19:13:01.084Z,45.90
2023-04-18T19:14:42.566Z,44.91
2023-04-18T19:16:23.978Z,45.12
2023-04-18T19:18:05.396Z,45.67
2023-04-18T19:19:46.850Z,44.31
2023-04-18T19:21:28.222Z,46.55
2023-04-18T19:23:09.518Z,45.10
2023-04-18T19:24:50.812Z,45.38
2023-04-18T19:26:32.098Z,45.05
2023-04-18T19:28:13.653Z,45.71
2023-04-18T19:29:55.527Z,45.85
2023-04-18T19:31:36.904Z,46.88
2023-04-18T19:33:18.209Z,46.64
2023-04-18T19:34:59.562Z,46.29
2023-04-18T19:36:40.905Z,45.36
2023-04-18T19:38:23.731Z,46.26
2023-04-18T19:40:05.031Z,45.67
2023-04-18T19:41:46.369Z,45.62
2023-04-18T19:43:27.768Z,45.14
2023-04-18T19:45:09.052Z,46.22
2023-04-18T19:46:50.378Z,45.93
2023-04-18T19:48:31.813Z,46.45
2023-04-18T19:50:13.296Z,45.43
2023-04-18T19:51:54.752Z,44.80
2023-04-18T19:53:36.440Z,44.24
2023-04-18T19:55:18.022Z,45.58
2023-04-18T19:56:59.404Z,45.15
2023-04-18T19:58:40.921Z,45.16
2023-04-18T20:00:22.333Z,45.68
2023-04-18T20:02:05.824Z,45.58
2023-04-18T20:03:48.076Z,46.32
2023-04-18T20:05:29.693Z,45.12
2023-04-18T20:07:11.051Z,44.27
2023-04-18T20:08:52.373Z,45.31
2023-04-18T20:10:33.744Z,44.60
2023-04-18T20:12:15.144Z,44.18
2023-04-18T20:13:56.596Z,44.48
2023-04-18T20:15:37.910Z,45.54
2023-04-18T20:17:19.449Z,46.88
2023-04-18T20:19:00.767Z,45.69
2023-04-18T20:20:42.081Z,45.20
2023-04-18T20:22:23.403Z,44.54
2023-04-18T20:24:04.707Z,44.61
2023-04-18T20:25:46.021Z,44.82
2023-04-18T20:27:27.303Z,43.67
2023-04-18T20:29:08.637Z,43.33
2023-04-18T20:30:50.187Z,43.44
2023-04-18T20:32:31.523Z,43.55
2023-04-18T20:34:12.874Z,43.52
2023-04-18T20:35:54.245Z,44.62
2023-04-18T20:37:35.757Z,44.77
2023-04-18T20:39:17.199Z,46.20
2023-04-18T20:40:58.765Z,46.40
2023-04-18T20:42:40.231Z,45.58
2023-04-18T20:44:21.591Z,46.64
2023-04-18T20:46:02.928Z,46.58
2023-04-18T20:47:44.435Z,46.86
2023-04-18T20:49:25.770Z,46.45
2023-04-18T20:51:07.082Z,46.84
2023-04-18T20:52:48.371Z,46.70
2023-04-18T20:54:29.677Z,47.09
2023-04-18T20:56:10.969Z,47.02
2023-04-18T20:57:52.990Z,45.77
2023-04-18T20:59:34.336Z,45.75
2023-04-18T21:01:15.731Z,45.77
2023-04-18T21:02:57.140Z,47.99
2023-04-18T21:04:38.637Z,46.29
2023-04-18T21:06:20.002Z,46.66
2023-04-18T21:08:01.344Z,48.02
2023-04-18T21:09:42.641Z,48.64
2023-04-18T21:11:23.910Z,48.37
2023-04-18T21:13:05.206Z,49.00
2023-04-18T21:14:46.466Z,47.57
2023-04-18T21:16:27.851Z,47.71
2023-04-18T21:18:09.372Z,48.63
2023-04-18T21:19:50.840Z,47.04
2023-04-18T21:21:32.200Z,47.61
2023-04-18T21:23:13.518Z,48.17
2023-04-18T21:24:54.791Z,48.73
2023-04-18T21:26:36.088Z,49.00
2023-04-18T21:28:17.369Z,47.88
2023-04-18T21:29:58.663Z,46.90
2023-04-18T21:31:40.004Z,47.49
2023-04-18T21:33:21.396Z,47.73
2023-04-18T21:35:02.690Z,46.56
2023-04-18T21:36:44.013Z,47.89
2023-04-18T21:38:25.356Z,48.60
2023-04-18T21:40:06.656Z,47.71
2023-04-18T21:41:47.963Z,47.64
2023-04-18T21:43:29.288Z,47.91
2023-04-18T21:45:10.577Z,46.57
2023-04-18T21:46:51.866Z,46.27